Time;durP1;ratioP1;P1;durP2;ratioP2;P2;SDS_P1;SDS_P2;PMS_P1;PMS_P2;Temp;Humidity;BMP_temperature;BMP_pressure;BME280_temperature;BME280_humidity;BME280_pressure;Samples;Min_cycle;Max_cycle;Signal;HPM_P1;HPM_P2
2024/04/19 00:01:27;;;;;;;2.08;1.20;;;22.40;46.80;;;;;;5423629;26;20009;-63
2024/04/19 00:03:53;;;;;;;2.20;1.10;;;22.30;46.80;;;;;;5432875;26;20015;-62
2024/04/19 00:06:18;;;;;;;2.80;1.10;;;22.30;46.80;;;;;;5430824;26;20003;-62
2024/04/19 00:08:44;;;;;;;1.98;1.10;;;22.30;46.80;;;;;;5430655;26;20002;-61
2024/04/19 00:11:10;;;;;;;2.97;1.30;;;22.30;46.80;;;;;;5422898;26;20176;-61
2024/04/19 00:13:35;;;;;;;2.25;1.20;;;22.30;46.80;;;;;;5426535;26;20057;-61
2024/04/19 00:16:01;;;;;;;2.05;1.00;;;22.30;46.80;;;;;;5431262;26;20006;-61
2024/04/19 00:18:27;;;;;;;2.17;1.10;;;22.30;46.80;;;;;;5428438;26;20019;-62
2024/04/19 00:20:55;;;;;;;1.67;1.00;;;22.30;47.40;;;;;;5432680;26;20423;-61
2024/04/19 00:23:22;;;;;;;1.75;1.00;;;22.30;46.90;;;;;;5430171;26;19998;-61
2024/04/19 00:25:48;;;;;;;1.95;1.02;;;22.30;46.90;;;;;;5428260;26;20076;-61
2024/04/19 00:28:13;;;;;;;1.58;0.88;;;22.30;46.90;;;;;;5429182;26;20011;-61
2024/04/19 00:30:40;;;;;;;2.08;1.10;;;22.30;46.90;;;;;;5426285;26;19999;-61
2024/04/19 00:33:06;;;;;;;1.60;1.02;;;22.20;46.80;;;;;;5429561;26;20478;-61
2024/04/19 00:35:31;;;;;;;1.70;1.00;;;22.20;46.90;;;;;;5424694;26;19995;-61
2024/04/19 00:37:57;;;;;;;1.88;1.10;;;22.20;46.90;;;;;;5424713;26;20003;-61
2024/04/19 00:40:23;;;;;;;1.85;1.00;;;22.20;46.90;;;;;;5434588;26;19999;-62
2024/04/19 00:42:49;;;;;;;1.67;0.90;;;22.20;46.90;;;;;;5426894;26;20080;-61
2024/04/19 00:45:39;;;;;;;2.03;0.90;;;22.20;46.90;;;;;;5428019;26;20010;-62
2024/04/19 00:48:18;;;;;;;1.70;0.90;;;22.20;46.90;;;;;;5428369;26;20003;-61
2024/04/19 00:50:45;;;;;;;1.80;1.00;;;22.20;46.90;;;;;;5428676;26;20080;-62
2024/04/19 00:53:26;;;;;;;1.50;1.00;;;22.20;46.90;;;;;;5423675;26;19999;-63
2024/04/19 00:55:52;;;;;;;1.95;0.90;;;22.20;46.90;;;;;;5424478;26;20073;-63
2024/04/19 00:58:18;;;;;;;1.20;0.90;;;22.20;46.90;;;;;;5422560;26;20347;-63
2024/04/19 01:00:45;;;;;;;1.92;0.93;;;22.20;46.90;;;;;;5420808;26;20471;-63
2024/04/19 01:03:12;;;;;;;1.67;1.02;;;22.10;46.80;;;;;;5427196;26;20439;-63
2024/04/19 01:05:38;;;;;;;1.63;0.90;;;22.10;46.80;;;;;;5428475;26;20007;-63
2024/04/19 01:08:05;;;;;;;1.70;0.90;;;22.10;46.80;;;;;;5428262;26;20031;-63
2024/04/19 01:10:30;;;;;;;1.83;0.90;;;22.10;46.90;;;;;;5423423;26;20360;-62
2024/04/19 01:12:58;;;;;;;1.50;0.88;;;22.10;46.90;;;;;;5432371;26;19999;-63
2024/04/19 01:15:23;;;;;;;2.17;1.08;;;22.10;46.90;;;;;;5420357;26;20003;-62
2024/04/19 01:17:49;;;;;;;1.70;0.90;;;22.10;46.90;;;;;;5425333;26;20022;-62
2024/04/19 01:20:15;;;;;;;1.70;1.00;;;22.10;46.90;;;;;;5428173;26;20368;-62
2024/04/19 01:22:44;;;;;;;1.10;0.80;;;22.10;46.90;;;;;;5427592;26;20018;-63
2024/04/19 01:25:30;;;;;;;;;;;22.10;46.90;;;;;;5442860;26;20018;-62
2024/04/19 01:27:56;;;;;;;1.10;0.80;;;22.10;46.90;;;;;;5425547;26;20534;-62
2024/04/19 01:30:21;;;;;;;1.55;0.93;;;22.10;46.90;;;;;;5430186;26;20003;-63
2024/04/19 01:32:47;;;;;;;1.75;0.93;;;22.10;46.90;;;;;;5433718;26;19996;-62
2024/04/19 01:35:12;;;;;;;2.58;1.00;;;22.10;46.90;;;;;;5432810;26;20003;-62
2024/04/19 01:37:38;;;;;;;1.60;0.90;;;22.00;46.90;;;;;;5431906;26;20010;-62
2024/04/19 01:40:04;;;;;;;1.63;0.93;;;22.00;46.90;;;;;;5426036;26;20014;-63
2024/04/19 01:42:30;;;;;;;0.90;0.80;;;22.10;46.90;;;;;;5429039;26;20395;-62
2024/04/19 01:44:56;;;;;;;1.58;0.73;;;22.00;46.90;;;;;;5431563;26;20319;-62
2024/04/19 01:47:21;;;;;;;1.88;0.90;;;22.00;46.90;;;;;;5430754;26;19999;-62
2024/04/19 01:49:47;;;;;;;2.03;1.00;;;22.00;46.90;;;;;;5432802;26;20089;-62
2024/04/19 01:52:13;;;;;;;1.58;0.90;;;22.00;46.90;;;;;;5428351;26;20015;-63
2024/04/19 01:54:38;;;;;;;1.30;0.90;;;22.00;46.90;;;;;;5428119;26;20036;-63
2024/04/19 01:57:04;;;;;;;1.73;0.90;;;22.00;46.90;;;;;;5429760;26;20051;-63
2024/04/19 01:59:30;;;;;;;1.15;0.85;;;22.00;46.90;;;;;;5428443;26;20000;-63
2024/04/19 02:01:55;;;;;;;1.77;0.90;;;22.00;47.00;;;;;;5428715;26;20073;-63
2024/04/19 02:04:21;;;;;;;1.08;0.90;;;22.00;47.00;;;;;;5428206;26;20007;-62
2024/04/19 02:06:47;;;;;;;1.88;0.90;;;22.00;46.90;;;;;;5430384;26;20034;-62
2024/04/19 02:09:13;;;;;;;1.25;0.88;;;21.90;46.90;;;;;;5430982;26;20071;-62
2024/04/19 02:11:38;;;;;;;1.90;0.90;;;21.90;46.90;;;;;;5427328;26;20003;-63
2024/04/19 02:14:04;;;;;;;1.38;0.75;;;21.90;46.90;;;;;;5430145;26;20034;-63
2024/04/19 02:16:30;;;;;;;1.70;0.90;;;21.90;46.90;;;;;;5424546;26;20000;-62
2024/04/19 02:18:56;;;;;;;2.30;0.88;;;21.90;46.90;;;;;;5431917;26;20013;-63
2024/04/19 02:21:27;;;;;;;1.23;0.80;;;21.90;47.00;;;;;;5430822;26;20068;-63
2024/04/19 02:23:57;;;;;;;1.00;0.88;;;21.90;47.00;;;;;;5431456;26;20460;-63
2024/04/19 02:26:23;;;;;;;1.50;0.80;;;21.90;47.00;;;;;;5429975;26;20356;-63
2024/04/19 02:31:33;;;;;;;1.83;0.88;;;21.90;47.00;;;;;;5425830;26;20512;-63
2024/04/19 02:33:58;;;;;;;1.20;0.70;;;21.90;47.00;;;;;;5428118;26;20014;-62
2024/04/19 02:36:24;;;;;;;1.60;0.90;;;21.90;47.00;;;;;;5430678;26;20002;-62
2024/04/19 02:38:50;;;;;;;1.80;0.85;;;21.80;46.90;;;;;;5430050;26;20031;-63
2024/04/19 02:41:15;;;;;;;1.42;0.80;;;21.80;46.90;;;;;;5430891;26;20004;-62
2024/04/19 02:43:46;;;;;;;1.35;0.90;;;21.80;46.90;;;;;;5430078;26;19999;-63
2024/04/19 02:46:11;;;;;;;2.35;1.00;;;21.80;46.90;;;;;;5427132;26;20002;-62
2024/04/19 02:48:37;;;;;;;1.58;0.90;;;21.80;46.90;;;;;;5430835;26;20013;-63
2024/04/19 02:51:03;;;;;;;1.58;0.88;;;21.80;47.00;;;;;;5430568;26;19999;-62
2024/04/19 02:53:31;;;;;;;1.40;0.85;;;21.80;46.90;;;;;;5426813;26;20009;-62
2024/04/19 02:55:58;;;;;;;1.35;0.80;;;21.80;47.00;;;;;;5429535;26;20355;-62
2024/04/19 02:58:24;;;;;;;1.08;0.70;;;21.80;47.00;;;;;;5431976;26;20018;-62
2024/04/19 03:00:49;;;;;;;1.38;0.80;;;21.80;47.00;;;;;;5427221;26;20011;-63
2024/04/19 03:03:15;;;;;;;1.27;0.90;;;21.80;47.00;;;;;;5431001;26;19996;-63
2024/04/19 03:05:41;;;;;;;1.98;1.00;;;21.80;47.00;;;;;;5430990;26;20004;-62
2024/04/19 03:08:07;;;;;;;1.25;0.80;;;21.80;47.00;;;;;;5432222;26;19996;-62
2024/04/19 03:10:37;;;;;;;1.02;0.80;;;21.80;47.00;;;;;;5428853;26;19995;-62
2024/04/19 03:13:03;;;;;;;1.25;0.80;;;21.70;47.00;;;;;;5430652;26;20343;-62
2024/04/19 03:15:28;;;;;;;1.40;0.80;;;21.70;47.00;;;;;;5431062;26;20039;-62
2024/04/19 03:17:54;;;;;;;1.33;0.70;;;21.70;47.00;;;;;;5439750;26;20331;-62
2024/04/19 03:20:20;;;;;;;1.60;0.90;;;21.70;47.00;;;;;;5429567;26;20159;-62
2024/04/19 03:22:45;;;;;;;0.80;0.70;;;21.70;47.00;;;;;;5430501;26;20000;-62
2024/04/19 03:25:12;;;;;;;1.45;0.80;;;21.70;47.00;;;;;;5428978;26;19998;-62
2024/04/19 03:27:38;;;;;;;1.10;0.70;;;21.70;47.00;;;;;;5428859;26;19999;-62
2024/04/19 03:30:05;;;;;;;1.73;0.70;;;21.70;47.00;;;;;;5429317;26;20004;-61
2024/04/19 03:32:30;;;;;;;1.50;0.80;;;21.70;47.00;;;;;;5421758;26;20065;-62
2024/04/19 03:34:57;;;;;;;1.23;0.80;;;21.70;47.00;;;;;;5427314;26;20451;-61
2024/04/19 03:37:23;;;;;;;1.45;0.90;;;21.70;47.00;;;;;;5430615;26;19999;-61
2024/04/19 03:39:48;;;;;;;1.35;0.90;;;21.70;47.00;;;;;;5427658;26;20010;-61
2024/04/19 03:42:18;;;;;;;1.25;0.75;;;21.70;47.00;;;;;;5427540;26;20010;-62
2024/04/19 03:47:28;;;;;;;1.20;0.75;;;21.70;47.00;;;;;;5429256;26;20640;-62
2024/04/19 03:49:53;;;;;;;1.02;0.70;;;21.70;47.00;;;;;;5430345;26;20003;-61
2024/04/19 03:52:19;;;;;;;1.30;0.80;;;21.70;47.00;;;;;;5430531;26;20032;-61
2024/04/19 03:54:45;;;;;;;1.02;0.68;;;21.60;47.00;;;;;;5426189;26;20054;-61
2024/04/19 03:57:10;;;;;;;1.40;0.85;;;21.70;47.10;;;;;;5427785;26;19996;-61
2024/04/19 03:59:38;;;;;;;1.15;0.75;;;21.60;47.00;;;;;;5429236;26;20003;-61
2024/04/19 04:02:03;;;;;;;0.98;0.60;;;21.60;47.00;;;;;;5428428;26;20011;-61
2024/04/19 04:04:29;;;;;;;0.77;0.70;;;21.60;47.00;;;;;;5429914;26;19999;-61
2024/04/19 04:06:55;;;;;;;1.75;0.80;;;21.60;47.00;;;;;;5430516;26;20395;-61
2024/04/19 04:09:21;;;;;;;1.33;0.80;;;21.60;47.10;;;;;;5432158;26;19992;-61
2024/04/19 04:11:46;;;;;;;0.90;0.82;;;21.60;47.00;;;;;;5431540;26;20007;-62
2024/04/19 04:14:12;;;;;;;1.10;0.80;;;21.60;47.10;;;;;;5426440;26;20068;-62
2024/04/19 04:16:37;;;;;;;0.95;0.60;;;21.60;47.00;;;;;;5425539;26;20003;-60
2024/04/19 04:19:04;;;;;;;1.20;0.80;;;21.60;47.10;;;;;;5427715;26;20009;-61
2024/04/19 04:21:29;;;;;;;1.15;0.90;;;21.60;47.00;;;;;;5426632;26;20026;-61
2024/04/19 04:23:55;;;;;;;1.55;0.90;;;21.60;47.00;;;;;;5426863;26;20316;-61
2024/04/19 04:26:20;;;;;;;1.00;0.60;;;21.60;47.00;;;;;;5427351;26;20010;-60
2024/04/19 04:28:46;;;;;;;1.67;0.80;;;21.60;47.00;;;;;;5429444;26;19999;-60
2024/04/19 04:31:12;;;;;;;0.85;0.70;;;21.60;47.00;;;;;;5426178;26;20058;-61
2024/04/19 04:33:37;;;;;;;1.25;0.70;;;21.60;47.10;;;;;;5424727;26;20410;-61
2024/04/19 04:36:03;;;;;;;1.13;0.70;;;21.60;47.10;;;;;;5423582;26;20411;-61
2024/04/19 04:38:29;;;;;;;1.50;0.80;;;21.50;47.00;;;;;;5428365;26;20007;-62
2024/04/19 04:40:55;;;;;;;1.27;0.80;;;21.60;47.10;;;;;;5423707;26;20010;-61
2024/04/19 04:43:20;;;;;;;1.02;0.60;;;21.60;47.10;;;;;;5426232;26;20037;-61
2024/04/19 04:45:46;;;;;;;1.23;0.80;;;21.50;47.00;;;;;;5427218;26;19996;-61
2024/04/19 04:48:12;;;;;;;1.45;0.93;;;21.60;47.10;;;;;;5427829;26;19999;-61
2024/04/19 04:50:38;;;;;;;1.30;0.73;;;21.60;47.10;;;;;;5425809;26;20076;-61
2024/04/19 04:53:04;;;;;;;0.90;0.70;;;21.60;47.10;;;;;;5425793;26;19991;-61
2024/04/19 04:55:32;;;;;;;1.25;0.73;;;21.50;47.10;;;;;;5425445;26;20010;-61
2024/04/19 04:58:00;;;;;;;1.40;0.70;;;21.50;47.10;;;;;;5428590;26;20033;-61
2024/04/19 05:00:31;;;;;;;0.63;0.60;;;21.50;47.20;;;;;;5442543;26;20024;-62
2024/04/19 05:02:58;;;;;;;1.25;0.77;;;21.50;47.30;;;;;;5423590;26;20004;-61
2024/04/19 05:05:24;;;;;;;1.38;0.70;;;21.50;47.40;;;;;;5430458;26;20011;-61
2024/04/19 05:07:50;;;;;;;1.30;0.80;;;21.50;47.50;;;;;;5428843;26;19995;-61
2024/04/19 05:10:17;;;;;;;1.58;0.88;;;21.50;47.50;;;;;;5433813;26;20368;-61
2024/04/19 05:12:42;;;;;;;1.95;0.80;;;21.50;47.60;;;;;;5429501;26;20404;-60
2024/04/19 05:15:08;;;;;;;2.28;0.80;;;21.50;47.70;;;;;;5425353;26;19999;-60
2024/04/19 05:17:35;;;;;;;1.50;0.77;;;21.50;47.70;;;;;;5426557;26;20010;-60
2024/04/19 05:20:02;;;;;;;2.80;1.00;;;21.50;47.70;;;;;;5431589;26;20022;-60
2024/04/19 05:22:28;;;;;;;1.40;0.80;;;21.60;47.80;;;;;;5429348;26;20009;-61
2024/04/19 05:24:54;;;;;;;1.08;0.80;;;21.50;47.70;;;;;;5424968;26;20301;-60
2024/04/19 05:27:20;;;;;;;1.10;0.70;;;21.50;47.70;;;;;;5428763;26;20019;-60
2024/04/19 05:29:46;;;;;;;1.35;0.70;;;21.50;47.60;;;;;;5427237;26;20052;-60
2024/04/19 05:32:11;;;;;;;1.60;0.80;;;21.50;47.60;;;;;;5425789;26;19998;-60
2024/04/19 05:34:37;;;;;;;1.00;0.80;;;21.50;47.60;;;;;;5433174;26;20100;-60
2024/04/19 05:37:03;;;;;;;1.45;0.80;;;21.50;47.80;;;;;;5433412;26;20014;-60
2024/04/19 05:39:28;;;;;;;1.65;0.90;;;21.50;48.20;;;;;;5431423;26;20012;-61
2024/04/19 05:41:54;;;;;;;1.08;0.60;;;21.50;48.10;;;;;;5430376;26;20007;-61
2024/04/19 05:44:20;;;;;;;1.80;1.00;;;21.50;48.00;;;;;;5428664;26;20041;-61
2024/04/19 05:46:46;;;;;;;1.02;0.80;;;21.50;47.90;;;;;;5431053;26;20007;-62
2024/04/19 05:49:11;;;;;;;1.00;0.80;;;21.50;47.80;;;;;;5429413;26;19999;-60
2024/04/19 05:51:37;;;;;;;1.50;0.80;;;21.50;47.80;;;;;;5426058;26;20003;-60
2024/04/19 05:54:03;;;;;;;1.17;0.73;;;21.50;47.70;;;;;;5430284;26;20032;-61
2024/04/19 05:56:29;;;;;;;2.47;0.80;;;21.50;47.70;;;;;;5427411;26;19999;-61
2024/04/19 05:58:57;;;;;;;1.30;0.80;;;21.50;47.70;;;;;;5427919;26;20063;-61
2024/04/19 06:01:25;;;;;;;1.23;0.82;;;21.50;47.60;;;;;;5428033;26;19999;-61
2024/04/19 06:03:51;;;;;;;1.25;0.90;;;21.50;47.60;;;;;;5430953;26;20018;-61
2024/04/19 06:06:18;;;;;;;1.20;0.75;;;21.50;47.60;;;;;;5432534;26;20010;-60
2024/04/19 06:08:43;;;;;;;1.00;0.70;;;21.50;47.60;;;;;;5430548;26;20015;-61
2024/04/19 06:11:09;;;;;;;1.45;0.70;;;21.50;47.60;;;;;;5433816;26;20038;-61
2024/04/19 06:13:35;;;;;;;1.30;0.70;;;21.50;47.50;;;;;;5430154;26;20014;-61
2024/04/19 06:16:01;;;;;;;1.17;0.75;;;21.50;47.50;;;;;;5426019;26;20401;-61
2024/04/19 06:18:26;;;;;;;2.25;0.70;;;21.50;47.50;;;;;;5427451;26;19995;-61
2024/04/19 06:20:52;;;;;;;1.42;0.70;;;21.50;47.50;;;;;;5431667;26;19996;-61
2024/04/19 06:23:17;;;;;;;1.23;0.75;;;21.50;47.50;;;;;;5429254;26;20010;-61
2024/04/19 06:25:43;;;;;;;1.17;0.60;;;21.50;47.50;;;;;;5431012;26;19995;-61
2024/04/19 06:28:09;;;;;;;2.17;0.85;;;21.50;47.50;;;;;;5433503;26;19999;-61
2024/04/19 06:30:34;;;;;;;0.77;0.60;;;21.50;47.50;;;;;;5430623;26;20014;-61
2024/04/19 06:33:00;;;;;;;1.10;0.90;;;21.50;47.50;;;;;;5428987;26;19995;-61
2024/04/19 06:35:25;;;;;;;0.93;0.70;;;21.50;47.40;;;;;;5432065;26;19999;-61
2024/04/19 06:37:51;;;;;;;1.60;0.73;;;21.50;47.40;;;;;;5429510;26;20043;-61
2024/04/19 06:40:16;;;;;;;1.10;0.70;;;21.50;47.40;;;;;;5428931;26;20106;-61
2024/04/19 06:42:42;;;;;;;1.48;0.80;;;21.50;47.40;;;;;;5435732;26;20071;-61
2024/04/19 06:45:08;;;;;;;1.13;0.82;;;21.50;48.00;;;;;;5431366;26;19999;-61
2024/04/19 06:47:34;;;;;;;1.27;0.80;;;21.50;47.40;;;;;;5426461;26;20020;-61
2024/04/19 06:49:59;;;;;;;1.27;0.77;;;21.50;47.40;;;;;;5428290;26;20467;-61
2024/04/19 06:52:25;;;;;;;1.48;0.65;;;21.50;47.40;;;;;;5430674;26;19999;-61
2024/04/19 06:54:51;;;;;;;1.67;0.80;;;21.50;47.40;;;;;;5432383;26;20004;-61
2024/04/19 06:57:20;;;;;;;1.30;0.70;;;21.40;47.30;;;;;;5429767;26;20541;-61
2024/04/19 06:59:45;;;;;;;1.27;0.70;;;21.50;47.40;;;;;;5435342;26;20021;-60
2024/04/19 07:02:11;;;;;;;1.25;0.77;;;21.40;47.30;;;;;;5427198;26;20367;-61
2024/04/19 07:04:37;;;;;;;1.88;0.77;;;21.50;47.40;;;;;;5428826;26;20321;-60
2024/04/19 07:07:03;;;;;;;2.25;0.80;;;21.40;47.30;;;;;;5428869;26;20430;-61
2024/04/19 07:09:28;;;;;;;0.90;0.70;;;21.40;47.30;;;;;;5428177;26;20057;-60
2024/04/19 07:11:54;;;;;;;0.98;0.70;;;21.40;47.30;;;;;;5431875;26;20009;-61
2024/04/19 07:14:20;;;;;;;1.52;0.70;;;21.40;47.30;;;;;;5421658;26;20007;-60
2024/04/19 07:16:46;;;;;;;1.25;0.70;;;21.40;47.30;;;;;;5431098;26;20047;-60
2024/04/19 07:19:11;;;;;;;1.38;0.80;;;21.40;47.30;;;;;;5424884;26;20451;-61
2024/04/19 07:21:38;;;;;;;1.08;0.70;;;21.40;47.30;;;;;;5432223;26;20355;-60
2024/04/19 07:24:04;;;;;;;1.73;0.80;;;21.40;47.30;;;;;;5427352;26;20011;-61
2024/04/19 07:26:30;;;;;;;0.95;0.65;;;21.40;47.30;;;;;;5427559;26;20079;-62
2024/04/19 07:28:58;;;;;;;1.25;0.70;;;21.40;47.30;;;;;;5429245;26;19999;-61
2024/04/19 07:31:24;;;;;;;0.80;0.73;;;21.40;47.20;;;;;;5427188;26;19998;-60
2024/04/19 07:33:49;;;;;;;1.48;0.90;;;21.40;47.20;;;;;;5425483;26;20010;-61
2024/04/19 07:36:15;;;;;;;0.77;0.70;;;21.40;47.30;;;;;;5430986;26;20474;-60
2024/04/19 07:38:40;;;;;;;0.80;0.70;;;21.40;47.30;;;;;;5428906;26;20014;-60
2024/04/19 07:41:06;;;;;;;1.38;0.85;;;21.40;47.30;;;;;;5424321;26;20135;-60
2024/04/19 07:43:32;;;;;;;0.73;0.70;;;21.40;47.30;;;;;;5429954;26;20499;-60
2024/04/19 07:45:57;;;;;;;1.25;0.70;;;21.40;47.30;;;;;;5425459;26;20018;-60
2024/04/19 07:48:23;;;;;;;0.82;0.70;;;21.40;47.20;;;;;;5424776;26;20834;-61
2024/04/19 07:50:48;;;;;;;1.48;0.70;;;21.40;47.20;;;;;;5429716;26;20003;-61
2024/04/19 07:53:19;;;;;;;1.20;0.70;;;21.40;47.20;;;;;;5428260;26;20331;-61
2024/04/19 07:55:45;;;;;;;1.00;0.70;;;21.40;47.20;;;;;;5427980;26;20273;-60
2024/04/19 07:58:12;;;;;;;1.17;0.80;;;21.30;47.20;;;;;;5429718;26;20002;-61
2024/04/19 08:00:37;;;;;;;1.33;0.70;;;21.30;47.20;;;;;;5426480;26;20050;-61
2024/04/19 08:03:03;;;;;;;1.60;0.80;;;21.30;47.20;;;;;;5425252;26;21157;-61
2024/04/19 08:05:29;;;;;;;1.15;0.80;;;21.30;47.20;;;;;;5430111;26;20328;-61
2024/04/19 08:07:56;;;;;;;1.13;0.70;;;21.30;47.20;;;;;;5428549;26;20011;-61
2024/04/19 08:10:24;;;;;;;1.80;0.82;;;21.30;47.20;;;;;;5430254;26;20015;-62
2024/04/19 08:12:50;;;;;;;1.00;0.70;;;21.30;47.10;;;;;;5429147;26;20002;-63
2024/04/19 08:15:16;;;;;;;0.88;0.70;;;21.30;47.10;;;;;;5431919;26;19999;-63
2024/04/19 08:17:42;;;;;;;1.50;0.80;;;21.30;47.10;;;;;;5427043;26;20000;-63
2024/04/19 08:20:08;;;;;;;1.15;0.70;;;21.30;47.10;;;;;;5422312;26;20036;-62
2024/04/19 08:22:34;;;;;;;0.90;0.70;;;21.30;47.20;;;;;;5429502;26;20044;-62
2024/04/19 08:25:01;;;;;;;1.08;0.70;;;21.30;47.10;;;;;;5428255;26;20420;-62
2024/04/19 08:27:26;;;;;;;1.08;0.70;;;21.30;47.10;;;;;;5428767;26;19999;-62
2024/04/19 08:29:53;;;;;;;3.22;0.90;;;21.30;47.10;;;;;;5429238;26;19999;-62
2024/04/19 08:32:19;;;;;;;1.10;0.77;;;21.30;47.10;;;;;;5434142;26;20069;-62
2024/04/19 08:34:50;;;;;;;0.95;0.73;;;21.30;47.10;;;;;;5422345;26;20012;-62
2024/04/19 08:37:16;;;;;;;0.80;0.75;;;21.30;47.10;;;;;;5429169;26;20012;-61
2024/04/19 08:39:42;;;;;;;0.90;0.70;;;21.30;47.10;;;;;;5429337;26;20002;-61
2024/04/19 08:42:09;;;;;;;0.90;0.70;;;21.30;47.10;;;;;;5440047;26;20122;-62
2024/04/19 08:44:35;;;;;;;0.80;0.60;;;21.30;47.10;;;;;;5432166;26;20451;-61
2024/04/19 08:47:01;;;;;;;0.90;0.70;;;21.30;47.10;;;;;;5427412;26;20072;-61
2024/04/19 08:49:28;;;;;;;1.10;0.70;;;21.30;47.10;;;;;;5427631;26;20015;-62
2024/04/19 08:51:56;;;;;;;1.33;0.80;;;21.20;47.00;;;;;;5427993;26;20014;-62
2024/04/19 08:54:24;;;;;;;1.55;0.85;;;21.20;46.90;;;;;;5429643;26;20017;-61
2024/04/19 08:56:50;;;;;;;1.17;0.85;;;21.20;47.00;;;;;;5427026;26;20306;-62
2024/04/19 08:59:18;;;;;;;1.17;0.80;;;21.20;46.90;;;;;;5425750;26;20419;-62
2024/04/19 09:01:43;;;;;;;1.08;0.77;;;21.20;47.50;;;;;;5427493;26;20047;-63
2024/04/19 09:04:09;;;;;;;1.88;0.77;;;21.20;46.90;;;;;;5425606;26;19999;-62
2024/04/19 09:06:35;;;;;;;1.55;0.80;;;21.20;47.00;;;;;;5424056;26;20003;-62
2024/04/19 09:09:02;;;;;;;0.80;0.63;;;21.20;47.00;;;;;;5424669;26;20083;-62
2024/04/19 09:11:28;;;;;;;1.45;0.90;;;21.20;47.50;;;;;;5426259;26;20072;-62
2024/04/19 09:13:55;;;;;;;1.58;0.90;;;21.20;47.50;;;;;;5425493;26;20470;-62
2024/04/19 09:16:20;;;;;;;1.27;0.80;;;21.20;46.90;;;;;;5430995;26;19999;-62
2024/04/19 09:18:52;;;;;;;1.17;0.85;;;21.20;46.90;;;;;;5424447;26;20017;-62
2024/04/19 09:21:19;;;;;;;0.93;0.63;;;21.20;46.90;;;;;;5426548;26;20605;-61
2024/04/19 09:23:44;;;;;;;1.20;0.80;;;21.20;46.90;;;;;;5424809;26;20039;-61
2024/04/19 09:26:10;;;;;;;1.10;0.80;;;21.20;46.90;;;;;;5430111;26;20003;-61
2024/04/19 09:28:36;;;;;;;1.25;0.88;;;21.20;46.90;;;;;;5427848;26;20007;-61
2024/04/19 09:31:03;;;;;;;1.38;0.80;;;21.20;46.90;;;;;;5427184;26;20003;-60
2024/04/19 09:33:29;;;;;;;0.85;0.70;;;21.20;46.90;;;;;;5427964;26;20081;-61
2024/04/19 09:35:56;;;;;;;0.90;0.70;;;21.10;46.80;;;;;;5423545;26;20007;-60
2024/04/19 09:38:22;;;;;;;1.13;0.80;;;21.10;46.80;;;;;;5427202;26;20014;-59
2024/04/19 09:40:48;;;;;;;0.93;0.73;;;21.10;46.80;;;;;;5424992;26;19995;-62
2024/04/19 09:43:15;;;;;;;1.50;0.80;;;21.10;46.70;;;;;;5429966;26;20017;-59
2024/04/19 09:45:43;;;;;;;0.85;0.70;;;21.10;46.80;;;;;;5426242;26;20039;-60
2024/04/19 09:48:14;;;;;;;0.80;0.73;;;21.10;46.80;;;;;;5421473;26;20039;-59
2024/04/19 09:50:45;;;;;;;1.30;0.80;;;21.10;46.80;;;;;;5422194;26;20003;-59
2024/04/19 09:53:17;;;;;;;0.73;0.70;;;21.10;46.80;;;;;;5433017;26;19995;-60
2024/04/19 09:56:10;;;;;;;1.10;0.70;;;21.10;46.80;;;;;;5427945;26;19999;-60
2024/04/19 09:58:37;;;;;;;0.82;0.60;;;21.10;46.70;;;;;;5429806;26;20396;-60
2024/04/19 10:01:04;;;;;;;0.80;0.70;;;21.10;46.70;;;;;;5429270;26;20015;-60
2024/04/19 10:03:30;;;;;;;0.95;0.70;;;21.10;46.70;;;;;;5429671;26;20439;-60
2024/04/19 10:05:57;;;;;;;0.98;0.70;;;21.10;46.70;;;;;;5426701;26;19999;-60
2024/04/19 10:08:27;;;;;;;0.90;0.73;;;21.10;46.70;;;;;;5426158;26;20027;-59
2024/04/19 10:10:54;;;;;;;1.10;0.90;;;21.10;46.70;;;;;;5432027;26;20006;-60
2024/04/19 10:13:21;;;;;;;1.10;0.70;;;21.10;46.70;;;;;;5430301;26;20002;-60
2024/04/19 10:15:47;;;;;;;1.20;0.80;;;21.10;46.70;;;;;;5430397;26;20176;-60
2024/04/19 10:18:13;;;;;;;0.93;0.70;;;21.10;46.70;;;;;;5428004;26;20010;-61
2024/04/19 10:20:40;;;;;;;0.77;0.75;;;21.00;46.70;;;;;;5429417;26;20084;-60
2024/04/19 10:23:06;;;;;;;1.13;0.80;;;21.10;46.70;;;;;;5431166;26;20003;-60
2024/04/19 10:25:36;;;;;;;0.80;0.70;;;21.00;46.70;;;;;;5431952;26;19999;-60
2024/04/19 10:28:02;;;;;;;0.90;0.77;;;21.00;46.70;;;;;;5433338;26;20343;-60
2024/04/19 10:30:34;;;;;;;1.38;0.90;;;21.00;46.70;;;;;;5431433;26;20034;-63
2024/04/19 10:33:01;;;;;;;1.13;0.80;;;21.00;46.80;;;;;;5427058;26;20672;-62
2024/04/19 10:35:27;;;;;;;1.17;0.80;;;21.00;46.80;;;;;;5426507;26;20451;-63
2024/04/19 10:37:53;;;;;;;1.40;0.80;;;21.10;46.90;;;;;;5430105;26;19999;-63
2024/04/19 10:40:22;;;;;;;1.05;0.80;;;21.00;46.90;;;;;;5430061;26;19994;-61
2024/04/19 10:42:47;;;;;;;1.58;0.90;;;21.00;47.00;;;;;;5434313;26;20013;-62
2024/04/19 10:45:14;;;;;;;0.93;0.80;;;21.00;47.00;;;;;;5431651;26;20003;-62
2024/04/19 10:47:41;;;;;;;2.00;0.90;;;21.00;47.00;;;;;;5427399;26;19999;-62
2024/04/19 10:50:07;;;;;;;1.80;0.77;;;21.00;47.00;;;;;;5427607;26;20015;-63
2024/04/19 10:52:34;;;;;;;1.08;0.70;;;21.00;47.00;;;;;;5430439;26;20013;-62
2024/04/19 10:55:00;;;;;;;1.38;0.80;;;21.00;47.00;;;;;;5430097;26;20000;-61
2024/04/19 10:57:29;;;;;;;2.38;1.00;;;21.00;47.10;;;;;;5429654;26;20049;-62
2024/04/19 10:59:55;;;;;;;1.10;0.88;;;21.00;47.10;;;;;;5427920;26;20015;-62
2024/04/19 11:02:21;;;;;;;1.10;0.80;;;21.00;47.10;;;;;;5427842;26;20003;-62
2024/04/19 11:04:48;;;;;;;1.75;0.80;;;21.00;47.10;;;;;;5423602;26;20632;-62
2024/04/19 11:07:13;;;;;;;0.90;0.75;;;21.00;47.10;;;;;;5428891;26;20004;-63
2024/04/19 11:09:39;;;;;;;1.45;1.02;;;21.00;47.10;;;;;;5427963;26;20014;-62
2024/04/19 11:12:05;;;;;;;1.23;0.70;;;21.00;46.90;;;;;;5430230;26;20462;-62
2024/04/19 11:14:31;;;;;;;2.33;0.90;;;21.00;47.20;;;;;;5435770;26;19999;-62
2024/04/19 11:16:56;;;;;;;1.38;0.80;;;21.00;47.20;;;;;;5430425;26;20346;-62
2024/04/19 11:19:23;;;;;;;1.42;0.70;;;21.00;47.10;;;;;;5431640;26;20013;-63
2024/04/19 11:21:49;;;;;;;1.75;0.90;;;21.00;47.00;;;;;;5429886;26;20013;-62
2024/04/19 11:24:18;;;;;;;0.70;0.70;;;21.00;46.90;;;;;;5426169;26;20442;-63
2024/04/19 11:26:44;;;;;;;1.13;0.80;;;21.00;46.80;;;;;;5429896;26;20103;-63
2024/04/19 11:29:10;;;;;;;1.35;0.80;;;21.00;46.80;;;;;;5428254;26;20062;-62
2024/04/19 11:31:36;;;;;;;2.38;0.80;;;21.00;46.80;;;;;;5430742;26;20006;-63
2024/04/19 11:34:01;;;;;;;1.50;0.80;;;21.00;46.80;;;;;;5427106;26;20002;-62
2024/04/19 11:36:27;;;;;;;1.02;0.80;;;21.00;46.70;;;;;;5423720;26;19999;-63
2024/04/19 11:38:55;;;;;;;1.75;0.82;;;21.00;46.70;;;;;;5429653;26;20349;-62
2024/04/19 11:41:20;;;;;;;2.45;0.80;;;21.00;46.80;;;;;;5432406;26;20018;-60
2024/04/19 11:43:46;;;;;;;0.88;0.70;;;21.00;46.80;;;;;;5425246;26;20464;-60
2024/04/19 11:46:21;;;;;;;1.73;0.90;;;21.00;46.80;;;;;;5428915;26;20014;-60
2024/04/19 11:48:46;;;;;;;0.77;0.73;;;21.00;46.80;;;;;;5425996;26;20398;-60
2024/04/19 11:51:13;;;;;;;0.98;0.80;;;21.00;46.80;;;;;;5421064;26;20008;-62
2024/04/19 11:53:40;;;;;;;1.02;0.80;;;21.00;46.80;;;;;;5432243;26;20011;-62
2024/04/19 11:56:06;;;;;;;2.13;0.95;;;21.00;46.90;;;;;;5429060;26;20459;-63
2024/04/19 11:58:33;;;;;;;0.68;0.68;;;21.10;46.90;;;;;;5427289;26;20014;-63
2024/04/19 12:00:59;;;;;;;1.23;0.70;;;21.10;46.90;;;;;;5432025;26;20470;-63
2024/04/19 12:03:25;;;;;;;1.23;0.73;;;21.10;47.00;;;;;;5424930;26;20175;-62
2024/04/19 12:05:50;;;;;;;1.60;0.80;;;21.00;46.90;;;;;;5422849;26;20022;-62
2024/04/19 12:08:16;;;;;;;1.23;0.80;;;21.10;46.90;;;;;;5427143;26;20632;-63
2024/04/19 12:10:42;;;;;;;1.30;0.82;;;21.00;46.90;;;;;;5425785;26;20015;-62
2024/04/19 12:13:09;;;;;;;1.00;0.70;;;21.00;46.80;;;;;;5425938;26;20000;-62
2024/04/19 12:15:34;;;;;;;1.23;0.80;;;21.10;46.90;;;;;;5429281;26;19990;-62
2024/04/19 12:18:00;;;;;;;0.95;0.75;;;21.00;46.90;;;;;;5427377;26;19995;-63
2024/04/19 12:20:26;;;;;;;2.15;0.70;;;21.00;46.80;;;;;;5424387;26;20051;-62
2024/04/19 12:22:52;;;;;;;1.38;0.70;;;21.00;46.80;;;;;;5429566;26;20003;-62
2024/04/19 12:25:17;;;;;;;0.93;0.70;;;21.10;46.80;;;;;;5428838;26;20076;-62
2024/04/19 12:27:43;;;;;;;1.20;0.73;;;21.00;46.80;;;;;;5427408;26;19994;-62
2024/04/19 12:30:09;;;;;;;1.15;0.75;;;21.00;46.70;;;;;;5443017;26;20009;-62
2024/04/19 12:32:35;;;;;;;1.42;0.80;;;21.00;46.70;;;;;;5428166;26;20525;-62
2024/04/19 12:35:00;;;;;;;0.82;0.70;;;21.00;46.70;;;;;;5425249;26;20003;-62
2024/04/19 12:37:26;;;;;;;1.20;0.80;;;21.00;46.60;;;;;;5428891;26;20334;-63
2024/04/19 12:39:52;;;;;;;0.95;0.70;;;21.00;46.60;;;;;;5427651;26;20074;-62
2024/04/19 12:42:17;;;;;;;0.95;0.80;;;21.00;46.60;;;;;;5426636;26;20010;-62
2024/04/19 12:44:47;;;;;;;1.00;0.70;;;21.00;46.60;;;;;;5429650;26;20006;-62
2024/04/19 12:47:14;;;;;;;1.35;0.70;;;21.00;46.60;;;;;;5427660;26;20003;-63
2024/04/19 12:49:40;;;;;;;0.70;0.60;;;21.10;46.60;;;;;;5427345;26;19999;-62